sensor_id;sensor_type;location;lat;lon;timestamp;temperature;humidity
51175;DHT22;37240;50.104;20.010;2023-11-22T00:03:14;5.20;99.90
51175;DHT22;37240;50.104;20.010;2023-11-22T00:08:15;5.20;99.90
51175;DHT22;37240;50.104;20.010;2023-11-22T00:13:15;5.20;99.90
51175;DHT22;37240;50.104;20.010;2023-11-22T00:18:16;5.20;99.90
51175;DHT22;37240;50.104;20.010;2023-11-22T00:23:16;5.20;99.90
51175;DHT22;37240;50.104;20.010;2023-11-22T00:28:17;5.10;99.90
51175;DHT22;37240;50.104;20.010;2023-11-22T00:33:17;5.10;99.90
51175;DHT22;37240;50.104;20.010;2023-11-22T00:38:18;5.30;99.90
51175;DHT22;37240;50.104;20.010;2023-11-22T00:43:18;5.20;99.90
51175;DHT22;37240;50.104;20.010;2023-11-22T00:48:19;5.10;99.90
51175;DHT22;37240;50.104;20.010;2023-11-22T00:53:19;5.10;99.90
51175;DHT22;37240;50.104;20.010;2023-11-22T00:58:20;5.10;99.90
51175;DHT22;37240;50.104;20.010;2023-11-22T01:03:21;5.10;99.90
51175;DHT22;37240;50.104;20.010;2023-11-22T01:08:21;5.10;99.90
51175;DHT22;37240;50.104;20.010;2023-11-22T01:13:22;5.10;99.90
51175;DHT22;37240;50.104;20.010;2023-11-22T01:18:22;5.10;99.90
51175;DHT22;37240;50.104;20.010;2023-11-22T01:23:23;5.10;99.90
51175;DHT22;37240;50.104;20.010;2023-11-22T01:28:23;5.00;99.90
51175;DHT22;37240;50.104;20.010;2023-11-22T01:33:24;5.00;99.90
51175;DHT22;37240;50.104;20.010;2023-11-22T01:38:24;4.70;99.90
51175;DHT22;37240;50.104;20.010;2023-11-22T01:43:26;4.70;99.90
51175;DHT22;37240;50.104;20.010;2023-11-22T01:48:27;4.60;99.90
51175;DHT22;37240;50.104;20.010;2023-11-22T01:53:28;4.60;99.90
51175;DHT22;37240;50.104;20.010;2023-11-22T01:58:29;4.50;99.90
51175;DHT22;37240;50.104;20.010;2023-11-22T02:03:30;4.40;99.90
51175;DHT22;37240;50.104;20.010;2023-11-22T02:08:30;4.30;99.90
51175;DHT22;37240;50.104;20.010;2023-11-22T02:13:31;4.30;99.90
51175;DHT22;37240;50.104;20.010;2023-11-22T02:18:32;4.10;99.90
51175;DHT22;37240;50.104;20.010;2023-11-22T02:23:32;4.20;99.90
51175;DHT22;37240;50.104;20.010;2023-11-22T02:28:33;4.20;99.90
51175;DHT22;37240;50.104;20.010;2023-11-22T02:33:33;4.20;99.90
51175;DHT22;37240;50.104;20.010;2023-11-22T02:38:34;4.30;99.90
51175;DHT22;37240;50.104;20.010;2023-11-22T02:43:34;4.30;99.90
51175;DHT22;37240;50.104;20.010;2023-11-22T02:48:35;4.30;99.90
51175;DHT22;37240;50.104;20.010;2023-11-22T02:53:35;4.30;99.90
51175;DHT22;37240;50.104;20.010;2023-11-22T02:58:36;4.30;99.90
51175;DHT22;37240;50.104;20.010;2023-11-22T03:03:36;4.30;99.90
51175;DHT22;37240;50.104;20.010;2023-11-22T03:08:37;4.30;99.90
51175;DHT22;37240;50.104;20.010;2023-11-22T03:13:37;4.10;99.90
51175;DHT22;37240;50.104;20.010;2023-11-22T03:18:38;4.10;99.90
51175;DHT22;37240;50.104;20.010;2023-11-22T03:23:38;4.00;99.90
51175;DHT22;37240;50.104;20.010;2023-11-22T03:28:39;4.00;99.90
51175;DHT22;37240;50.104;20.010;2023-11-22T03:33:39;4.00;99.90
51175;DHT22;37240;50.104;20.010;2023-11-22T03:38:40;4.00;99.90
51175;DHT22;37240;50.104;20.010;2023-11-22T03:43:40;4.00;99.90
51175;DHT22;37240;50.104;20.010;2023-11-22T03:48:41;3.90;99.90
51175;DHT22;37240;50.104;20.010;2023-11-22T03:53:42;3.90;99.90
51175;DHT22;37240;50.104;20.010;2023-11-22T03:58:42;3.90;99.90
51175;DHT22;37240;50.104;20.010;2023-11-22T04:03:43;3.80;99.90
51175;DHT22;37240;50.104;20.010;2023-11-22T04:08:44;3.80;99.90
51175;DHT22;37240;50.104;20.010;2023-11-22T04:13:44;3.90;99.90
51175;DHT22;37240;50.104;20.010;2023-11-22T04:18:45;3.70;99.90
51175;DHT22;37240;50.104;20.010;2023-11-22T04:23:45;3.70;99.80
51175;DHT22;37240;50.104;20.010;2023-11-22T04:28:46;3.80;99.90
51175;DHT22;37240;50.104;20.010;2023-11-22T04:33:47;3.80;99.90
51175;DHT22;37240;50.104;20.010;2023-11-22T04:38:47;3.80;99.80
51175;DHT22;37240;50.104;20.010;2023-11-22T04:43:48;3.80;99.90
51175;DHT22;37240;50.104;20.010;2023-11-22T04:48:49;4.00;99.90
51175;DHT22;37240;50.104;20.010;2023-11-22T04:53:50;3.90;99.90
51175;DHT22;37240;50.104;20.010;2023-11-22T04:58:50;3.80;99.80
51175;DHT22;37240;50.104;20.010;2023-11-22T05:03:51;3.80;99.90
51175;DHT22;37240;50.104;20.010;2023-11-22T05:08:51;3.50;99.90
51175;DHT22;37240;50.104;20.010;2023-11-22T05:13:52;3.50;99.90
51175;DHT22;37240;50.104;20.010;2023-11-22T05:18:52;3.50;99.90
51175;DHT22;37240;50.104;20.010;2023-11-22T05:23:53;3.60;99.90
51175;DHT22;37240;50.104;20.010;2023-11-22T05:28:54;3.60;99.90
51175;DHT22;37240;50.104;20.010;2023-11-22T05:33:54;3.70;99.90
51175;DHT22;37240;50.104;20.010;2023-11-22T05:38:55;3.70;99.90
51175;DHT22;37240;50.104;20.010;2023-11-22T05:43:56;3.70;99.90
51175;DHT22;37240;50.104;20.010;2023-11-22T05:48:56;3.60;99.90
51175;DHT22;37240;50.104;20.010;2023-11-22T05:53:57;3.70;99.90
51175;DHT22;37240;50.104;20.010;2023-11-22T05:58:58;3.70;99.90
51175;DHT22;37240;50.104;20.010;2023-11-22T06:03:58;3.70;99.90
51175;DHT22;37240;50.104;20.010;2023-11-22T06:08:59;3.70;99.90
51175;DHT22;37240;50.104;20.010;2023-11-22T06:13:59;3.70;99.90
51175;DHT22;37240;50.104;20.010;2023-11-22T06:19:00;3.50;99.90
51175;DHT22;37240;50.104;20.010;2023-11-22T06:24:00;3.60;99.90
51175;DHT22;37240;50.104;20.010;2023-11-22T06:29:01;3.60;99.90
51175;DHT22;37240;50.104;20.010;2023-11-22T06:34:02;3.60;99.90
51175;DHT22;37240;50.104;20.010;2023-11-22T06:39:02;3.50;99.90
51175;DHT22;37240;50.104;20.010;2023-11-22T06:44:03;3.50;99.70
51175;DHT22;37240;50.104;20.010;2023-11-22T06:49:03;3.40;99.90
51175;DHT22;37240;50.104;20.010;2023-11-22T06:54:04;3.40;99.70
51175;DHT22;37240;50.104;20.010;2023-11-22T06:59:05;3.30;99.70
51175;DHT22;37240;50.104;20.010;2023-11-22T07:04:05;3.40;99.70
51175;DHT22;37240;50.104;20.010;2023-11-22T07:09:06;3.40;99.50
51175;DHT22;37240;50.104;20.010;2023-11-22T07:14:07;3.40;99.50
51175;DHT22;37240;50.104;20.010;2023-11-22T07:19:07;3.40;99.10
51175;DHT22;37240;50.104;20.010;2023-11-22T07:24:08;3.40;99.30
51175;DHT22;37240;50.104;20.010;2023-11-22T07:29:08;3.50;99.60
51175;DHT22;37240;50.104;20.010;2023-11-22T07:34:09;3.50;99.10
51175;DHT22;37240;50.104;20.010;2023-11-22T07:39:09;3.40;99.00
51175;DHT22;37240;50.104;20.010;2023-11-22T07:44:10;3.40;99.20
51175;DHT22;37240;50.104;20.010;2023-11-22T07:49:11;3.30;99.20
51175;DHT22;37240;50.104;20.010;2023-11-22T07:54:11;3.30;99.20
51175;DHT22;37240;50.104;20.010;2023-11-22T07:59:12;3.20;99.70
51175;DHT22;37240;50.104;20.010;2023-11-22T08:04:13;3.40;99.90
51175;DHT22;37240;50.104;20.010;2023-11-22T08:09:14;3.40;99.60
51175;DHT22;37240;50.104;20.010;2023-11-22T08:14:15;3.40;99.20
51175;DHT22;37240;50.104;20.010;2023-11-22T08:19:16;3.50;99.40
51175;DHT22;37240;50.104;20.010;2023-11-22T08:24:16;3.50;99.00
51175;DHT22;37240;50.104;20.010;2023-11-22T08:29:17;3.40;98.80
51175;DHT22;37240;50.104;20.010;2023-11-22T08:34:17;3.40;98.60
51175;DHT22;37240;50.104;20.010;2023-11-22T08:39:18;3.30;98.80
51175;DHT22;37240;50.104;20.010;2023-11-22T08:44:18;3.40;98.90
51175;DHT22;37240;50.104;20.010;2023-11-22T08:49:19;3.50;98.60
51175;DHT22;37240;50.104;20.010;2023-11-22T08:54:20;3.40;98.40
51175;DHT22;37240;50.104;20.010;2023-11-22T08:59:20;3.40;98.40
51175;DHT22;37240;50.104;20.010;2023-11-22T09:04:21;3.50;97.90
51175;DHT22;37240;50.104;20.010;2023-11-22T09:09:21;3.40;97.80
51175;DHT22;37240;50.104;20.010;2023-11-22T09:14:22;3.50;98.10
51175;DHT22;37240;50.104;20.010;2023-11-22T09:19:22;3.50;98.00
51175;DHT22;37240;50.104;20.010;2023-11-22T09:24:23;3.50;98.20
51175;DHT22;37240;50.104;20.010;2023-11-22T09:29:23;3.60;98.10
51175;DHT22;37240;50.104;20.010;2023-11-22T09:34:24;3.40;97.80
51175;DHT22;37240;50.104;20.010;2023-11-22T09:39:24;3.50;97.80
51175;DHT22;37240;50.104;20.010;2023-11-22T09:44:25;3.40;97.60
51175;DHT22;37240;50.104;20.010;2023-11-22T09:49:27;3.50;97.50
51175;DHT22;37240;50.104;20.010;2023-11-22T09:54:30;3.50;97.50
51175;DHT22;37240;50.104;20.010;2023-11-22T09:59:31;3.60;97.60
51175;DHT22;37240;50.104;20.010;2023-11-22T10:04:32;3.70;97.70
51175;DHT22;37240;50.104;20.010;2023-11-22T10:09:33;3.70;97.80
51175;DHT22;37240;50.104;20.010;2023-11-22T10:14:33;3.80;97.60
51175;DHT22;37240;50.104;20.010;2023-11-22T10:19:34;3.70;97.40
51175;DHT22;37240;50.104;20.010;2023-11-22T10:24:36;3.80;97.30
51175;DHT22;37240;50.104;20.010;2023-11-22T10:29:36;3.70;97.10
51175;DHT22;37240;50.104;20.010;2023-11-22T10:34:37;3.80;97.20
51175;DHT22;37240;50.104;20.010;2023-11-22T10:39:37;4.00;97.30
51175;DHT22;37240;50.104;20.010;2023-11-22T10:44:38;3.90;96.90
51175;DHT22;37240;50.104;20.010;2023-11-22T10:49:39;3.80;96.70
51175;DHT22;37240;50.104;20.010;2023-11-22T10:54:49;3.90;96.90
51175;DHT22;37240;50.104;20.010;2023-11-22T10:59:54;3.80;96.90
51175;DHT22;37240;50.104;20.010;2023-11-22T11:05:04;3.80;96.70
51175;DHT22;37240;50.104;20.010;2023-11-22T11:10:08;3.70;96.70
51175;DHT22;37240;50.104;20.010;2023-11-22T11:15:09;3.70;96.90
51175;DHT22;37240;50.104;20.010;2023-11-22T11:20:10;3.70;96.80
51175;DHT22;37240;50.104;20.010;2023-11-22T11:25:15;3.80;97.10
51175;DHT22;37240;50.104;20.010;2023-11-22T11:30:40;3.80;96.80
51175;DHT22;37240;50.104;20.010;2023-11-22T11:35:48;3.80;96.90
51175;DHT22;37240;50.104;20.010;2023-11-22T11:40:49;3.80;97.20
51175;DHT22;37240;50.104;20.010;2023-11-22T11:45:49;3.80;97.10
51175;DHT22;37240;50.104;20.010;2023-11-22T11:50:52;3.80;96.70
51175;DHT22;37240;50.104;20.010;2023-11-22T11:55:54;3.80;96.60
51175;DHT22;37240;50.104;20.010;2023-11-22T12:00:55;3.80;96.60
51175;DHT22;37240;50.104;20.010;2023-11-22T12:05:55;3.90;96.60
51175;DHT22;37240;50.104;20.010;2023-11-22T12:10:57;3.90;96.90
51175;DHT22;37240;50.104;20.010;2023-11-22T12:15:57;4.00;96.40
51175;DHT22;37240;50.104;20.010;2023-11-22T12:20:59;4.10;96.10
51175;DHT22;37240;50.104;20.010;2023-11-22T12:26:02;4.00;96.30
51175;DHT22;37240;50.104;20.010;2023-11-22T12:31:10;3.80;96.20
51175;DHT22;37240;50.104;20.010;2023-11-22T12:36:11;3.80;96.30
51175;DHT22;37240;50.104;20.010;2023-11-22T12:41:14;3.90;96.60
51175;DHT22;37240;50.104;20.010;2023-11-22T12:46:15;4.00;96.10
51175;DHT22;37240;50.104;20.010;2023-11-22T12:51:16;3.90;96.50
51175;DHT22;37240;50.104;20.010;2023-11-22T12:56:16;3.90;96.20
51175;DHT22;37240;50.104;20.010;2023-11-22T13:01:17;4.00;96.40
51175;DHT22;37240;50.104;20.010;2023-11-22T13:06:18;3.80;96.20
51175;DHT22;37240;50.104;20.010;2023-11-22T13:11:18;3.90;96.70
51175;DHT22;37240;50.104;20.010;2023-11-22T13:16:19;3.80;96.80
51175;DHT22;37240;50.104;20.010;2023-11-22T13:21:19;3.90;96.90
51175;DHT22;37240;50.104;20.010;2023-11-22T13:26:20;3.90;96.10
51175;DHT22;37240;50.104;20.010;2023-11-22T13:31:21;3.90;96.10
51175;DHT22;37240;50.104;20.010;2023-11-22T13:36:21;3.90;96.00
51175;DHT22;37240;50.104;20.010;2023-11-22T13:41:22;3.90;95.80
51175;DHT22;37240;50.104;20.010;2023-11-22T13:46:22;3.90;96.40
51175;DHT22;37240;50.104;20.010;2023-11-22T13:51:23;3.80;96.10
51175;DHT22;37240;50.104;20.010;2023-11-22T13:56:23;3.90;95.90
51175;DHT22;37240;50.104;20.010;2023-11-22T14:01:24;4.00;96.00
51175;DHT22;37240;50.104;20.010;2023-11-22T14:06:25;3.90;96.00
51175;DHT22;37240;50.104;20.010;2023-11-22T14:11:26;4.00;96.00
51175;DHT22;37240;50.104;20.010;2023-11-22T14:16:26;4.00;95.90
51175;DHT22;37240;50.104;20.010;2023-11-22T14:21:27;4.10;95.60
51175;DHT22;37240;50.104;20.010;2023-11-22T14:26:27;4.00;95.80
51175;DHT22;37240;50.104;20.010;2023-11-22T14:31:28;4.00;95.90
51175;DHT22;37240;50.104;20.010;2023-11-22T14:36:28;4.00;96.00
51175;DHT22;37240;50.104;20.010;2023-11-22T14:41:29;4.00;96.20
51175;DHT22;37240;50.104;20.010;2023-11-22T14:46:29;4.00;95.90
51175;DHT22;37240;50.104;20.010;2023-11-22T14:51:30;4.00;95.70
51175;DHT22;37240;50.104;20.010;2023-11-22T14:56:30;4.00;94.50
51175;DHT22;37240;50.104;20.010;2023-11-22T15:01:31;3.90;94.10
51175;DHT22;37240;50.104;20.010;2023-11-22T15:06:32;4.00;94.10
51175;DHT22;37240;50.104;20.010;2023-11-22T15:11:32;3.90;94.20
51175;DHT22;37240;50.104;20.010;2023-11-22T15:16:33;3.90;94.60
51175;DHT22;37240;50.104;20.010;2023-11-22T15:21:33;3.90;94.90
51175;DHT22;37240;50.104;20.010;2023-11-22T15:26:34;3.90;94.80
51175;DHT22;37240;50.104;20.010;2023-11-22T15:31:34;4.00;93.90
51175;DHT22;37240;50.104;20.010;2023-11-22T15:36:35;4.00;93.70
51175;DHT22;37240;50.104;20.010;2023-11-22T15:41:35;4.10;93.80
51175;DHT22;37240;50.104;20.010;2023-11-22T15:46:36;4.10;94.00
51175;DHT22;37240;50.104;20.010;2023-11-22T15:51:36;4.20;94.30
51175;DHT22;37240;50.104;20.010;2023-11-22T15:56:37;4.20;94.40
51175;DHT22;37240;50.104;20.010;2023-11-22T16:01:37;4.20;93.70
51175;DHT22;37240;50.104;20.010;2023-11-22T16:06:38;4.10;93.50
51175;DHT22;37240;50.104;20.010;2023-11-22T16:11:38;4.00;94.00
51175;DHT22;37240;50.104;20.010;2023-11-22T16:16:39;4.00;93.10
51175;DHT22;37240;50.104;20.010;2023-11-22T16:21:40;3.90;92.90
51175;DHT22;37240;50.104;20.010;2023-11-22T16:26:40;4.00;93.10
51175;DHT22;37240;50.104;20.010;2023-11-22T16:31:41;4.00;93.30
51175;DHT22;37240;50.104;20.010;2023-11-22T16:36:41;4.10;93.30
51175;DHT22;37240;50.104;20.010;2023-11-22T16:41:42;4.00;93.00
51175;DHT22;37240;50.104;20.010;2023-11-22T16:46:45;4.10;93.30
51175;DHT22;37240;50.104;20.010;2023-11-22T16:51:47;4.20;93.40
51175;DHT22;37240;50.104;20.010;2023-11-22T16:56:47;4.20;93.30
51175;DHT22;37240;50.104;20.010;2023-11-22T17:01:48;4.30;93.20
51175;DHT22;37240;50.104;20.010;2023-11-22T17:06:48;4.20;92.80
51175;DHT22;37240;50.104;20.010;2023-11-22T17:11:49;4.20;92.50
51175;DHT22;37240;50.104;20.010;2023-11-22T17:16:49;4.20;92.50
51175;DHT22;37240;50.104;20.010;2023-11-22T17:21:50;4.30;92.50
51175;DHT22;37240;50.104;20.010;2023-11-22T17:26:51;4.20;92.80
51175;DHT22;37240;50.104;20.010;2023-11-22T17:31:51;4.20;92.50
51175;DHT22;37240;50.104;20.010;2023-11-22T17:36:52;4.20;92.20
51175;DHT22;37240;50.104;20.010;2023-11-22T17:41:52;4.20;92.40
51175;DHT22;37240;50.104;20.010;2023-11-22T17:46:53;4.20;92.40
51175;DHT22;37240;50.104;20.010;2023-11-22T17:51:53;4.20;92.70
51175;DHT22;37240;50.104;20.010;2023-11-22T17:56:54;4.20;93.10
51175;DHT22;37240;50.104;20.010;2023-11-22T18:01:54;4.20;93.20
51175;DHT22;37240;50.104;20.010;2023-11-22T18:06:55;4.20;93.20
51175;DHT22;37240;50.104;20.010;2023-11-22T18:11:55;4.20;93.00
51175;DHT22;37240;50.104;20.010;2023-11-22T18:16:56;4.20;93.20
51175;DHT22;37240;50.104;20.010;2023-11-22T18:21:57;4.20;92.80
51175;DHT22;37240;50.104;20.010;2023-11-22T18:26:57;4.20;93.00
51175;DHT22;37240;50.104;20.010;2023-11-22T18:31:59;4.20;92.80
51175;DHT22;37240;50.104;20.010;2023-11-22T18:37:00;4.10;92.70
51175;DHT22;37240;50.104;20.010;2023-11-22T18:42:01;4.00;92.50
51175;DHT22;37240;50.104;20.010;2023-11-22T18:47:01;4.00;92.50
51175;DHT22;37240;50.104;20.010;2023-11-22T18:52:02;4.00;93.00
51175;DHT22;37240;50.104;20.010;2023-11-22T18:57:03;4.10;93.10
51175;DHT22;37240;50.104;20.010;2023-11-22T19:02:04;4.10;92.50
51175;DHT22;37240;50.104;20.010;2023-11-22T19:07:04;4.00;92.20
51175;DHT22;37240;50.104;20.010;2023-11-22T19:12:05;4.00;92.00
51175;DHT22;37240;50.104;20.010;2023-11-22T19:17:06;4.00;92.00
51175;DHT22;37240;50.104;20.010;2023-11-22T19:22:07;4.00;92.10
51175;DHT22;37240;50.104;20.010;2023-11-22T19:27:08;4.00;92.30
51175;DHT22;37240;50.104;20.010;2023-11-22T19:32:09;4.00;92.30
51175;DHT22;37240;50.104;20.010;2023-11-22T19:37:09;4.10;91.90
51175;DHT22;37240;50.104;20.010;2023-11-22T19:42:10;4.10;91.90
51175;DHT22;37240;50.104;20.010;2023-11-22T19:47:10;4.10;91.90
51175;DHT22;37240;50.104;20.010;2023-11-22T19:52:11;4.00;92.10
51175;DHT22;37240;50.104;20.010;2023-11-22T19:57:11;4.10;91.90
51175;DHT22;37240;50.104;20.010;2023-11-22T20:02:12;4.10;91.80
51175;DHT22;37240;50.104;20.010;2023-11-22T20:07:12;4.10;92.00
51175;DHT22;37240;50.104;20.010;2023-11-22T20:12:13;4.00;92.10
51175;DHT22;37240;50.104;20.010;2023-11-22T20:17:14;4.10;92.30
51175;DHT22;37240;50.104;20.010;2023-11-22T20:22:14;4.10;92.40
51175;DHT22;37240;50.104;20.010;2023-11-22T20:27:15;4.10;92.50
51175;DHT22;37240;50.104;20.010;2023-11-22T20:32:16;4.00;92.70
51175;DHT22;37240;50.104;20.010;2023-11-22T20:37:17;4.00;92.70
51175;DHT22;37240;50.104;20.010;2023-11-22T20:42:17;4.00;92.80
51175;DHT22;37240;50.104;20.010;2023-11-22T20:47:18;4.00;93.20
51175;DHT22;37240;50.104;20.010;2023-11-22T20:52:19;4.10;92.90
51175;DHT22;37240;50.104;20.010;2023-11-22T20:57:19;4.10;92.70
51175;DHT22;37240;50.104;20.010;2023-11-22T21:02:20;4.00;92.40
51175;DHT22;37240;50.104;20.010;2023-11-22T21:07:20;4.10;92.50
51175;DHT22;37240;50.104;20.010;2023-11-22T21:12:21;4.10;92.50
51175;DHT22;37240;50.104;20.010;2023-11-22T21:17:21;4.10;92.40
51175;DHT22;37240;50.104;20.010;2023-11-22T21:22:22;4.00;92.20
51175;DHT22;37240;50.104;20.010;2023-11-22T21:27:22;4.00;92.50
51175;DHT22;37240;50.104;20.010;2023-11-22T21:32:23;4.00;92.80
51175;DHT22;37240;50.104;20.010;2023-11-22T21:37:24;3.90;92.80
51175;DHT22;37240;50.104;20.010;2023-11-22T21:42:24;3.80;93.00
51175;DHT22;37240;50.104;20.010;2023-11-22T21:47:25;4.10;93.10
51175;DHT22;37240;50.104;20.010;2023-11-22T21:52:25;4.00;93.20
51175;DHT22;37240;50.104;20.010;2023-11-22T21:57:26;4.00;93.50
51175;DHT22;37240;50.104;20.010;2023-11-22T22:02:26;4.10;93.30
51175;DHT22;37240;50.104;20.010;2023-11-22T22:07:27;4.20;93.00
51175;DHT22;37240;50.104;20.010;2023-11-22T22:12:27;4.20;92.70
51175;DHT22;37240;50.104;20.010;2023-11-22T22:17:28;4.10;93.10
51175;DHT22;37240;50.104;20.010;2023-11-22T22:22:28;4.20;93.10
51175;DHT22;37240;50.104;20.010;2023-11-22T22:27:29;4.20;93.10
51175;DHT22;37240;50.104;20.010;2023-11-22T22:32:29;4.20;92.90
51175;DHT22;37240;50.104;20.010;2023-11-22T22:37:30;4.40;92.90
51175;DHT22;37240;50.104;20.010;2023-11-22T22:42:31;4.10;93.10
51175;DHT22;37240;50.104;20.010;2023-11-22T22:47:31;4.20;93.30
51175;DHT22;37240;50.104;20.010;2023-11-22T22:52:32;4.20;93.40
51175;DHT22;37240;50.104;20.010;2023-11-22T22:57:32;4.30;93.30
51175;DHT22;37240;50.104;20.010;2023-11-22T23:02:33;4.30;93.10
51175;DHT22;37240;50.104;20.010;2023-11-22T23:07:33;4.30;93.40
51175;DHT22;37240;50.104;20.010;2023-11-22T23:12:34;4.50;93.60
51175;DHT22;37240;50.104;20.010;2023-11-22T23:17:34;4.30;93.90
51175;DHT22;37240;50.104;20.010;2023-11-22T23:22:35;4.30;93.90
51175;DHT22;37240;50.104;20.010;2023-11-22T23:27:36;4.30;93.40
51175;DHT22;37240;50.104;20.010;2023-11-22T23:32:37;4.20;93.20
51175;DHT22;37240;50.104;20.010;2023-11-22T23:37:38;4.30;93.30
51175;DHT22;37240;50.104;20.010;2023-11-22T23:42:42;4.30;93.30
51175;DHT22;37240;50.104;20.010;2023-11-22T23:47:43;4.30;93.20
51175;DHT22;37240;50.104;20.010;2023-11-22T23:52:44;4.20;93.10
51175;DHT22;37240;50.104;20.010;2023-11-22T23:57:44;4.30;93.10
